Time;durP1;ratioP1;P1;durP2;ratioP2;P2;SDS_P1;SDS_P2;PMS_P1;PMS_P2;Temp;Humidity;BMP_temperature;BMP_pressure;BME280_temperature;BME280_humidity;BME280_pressure;Samples;Min_cycle;Max_cycle;Signal;HPM_P1;HPM_P2
2022/09/20 00:00:46;;;;;;;2.90;2.60;;;;;;;;;;4967998;28;20203;-55
2022/09/20 00:03:13;;;;;;;3.37;2.63;;;;;;;;;;4968339;28;20646;-55
2022/09/20 00:05:42;;;;;;;4.87;2.90;;;;;;;;;;4965035;28;20563;-55
2022/09/20 00:08:12;;;;;;;4.63;2.50;;;;;;;;;;4957856;28;20192;-55
2022/09/20 00:10:41;;;;;;;4.30;2.73;;;;;;;;;;4959193;28;20769;-55
2022/09/20 00:13:09;;;;;;;3.53;2.50;;;;;;;;;;4969128;28;20176;-55
2022/09/20 00:15:39;;;;;;;2.23;2.00;;;;;;;;;;4942295;28;20198;-55
2022/09/20 00:18:06;;;;;;;3.07;2.47;;;;;;;;;;4968684;28;20191;-55
2022/09/20 00:20:35;;;;;;;2.57;2.30;;;;;;;;;;4965639;28;20235;-55
2022/09/20 00:23:05;;;;;;;2.57;2.30;;;;;;;;;;4964926;28;20242;-55
2022/09/20 00:25:32;;;;;;;4.43;2.97;;;;;;;;;;4967580;28;20206;-55
2022/09/20 00:27:58;;;;;;;5.77;2.90;;;;;;;;;;4951418;28;20272;-55
2022/09/20 00:30:25;;;;;;;2.90;2.60;;;;;;;;;;4965252;28;20199;-55
2022/09/20 00:32:51;;;;;;;4.97;2.77;;;;;;;;;;4949649;28;20754;-55
2022/09/20 00:35:17;;;;;;;2.70;2.50;;;;;;;;;;4964074;28;20176;-55
2022/09/20 00:37:43;;;;;;;3.33;2.20;;;;;;;;;;4965075;28;20219;-55
2022/09/20 00:40:14;;;;;;;3.93;3.03;;;;;;;;;;4963748;28;20750;-54
2022/09/20 00:42:40;;;;;;;3.37;2.57;;;;;;;;;;4966883;28;20176;-55
2022/09/20 00:45:23;;;;;;;3.27;2.57;;;;;;;;;;4963799;28;20303;-55
2022/09/20 00:47:52;;;;;;;3.83;2.33;;;;;;;;;;4967158;28;20275;-54
2022/09/20 00:50:42;;;;;;;4.57;2.40;;;;;;;;;;4962103;28;20364;-55
2022/09/20 00:53:23;;;;;;;4.90;2.53;;;;;;;;;;4964116;28;20172;-54
2022/09/20 00:56:10;;;;;;;6.97;2.80;;;;;;;;;;4965475;28;20211;-54
2022/09/20 00:58:59;;;;;;;;;;;;;;;;;;;;;
2022/09/20 01:01:29;;;;;;;4.50;2.73;;;;;;;;;;4962633;28;20182;-55
2022/09/20 01:04:00;;;;;;;4.77;2.87;;;;;;;;;;4950606;28;20187;-55
2022/09/20 01:06:57;;;;;;;3.60;2.27;;;;;;;;;;4965675;28;20192;-55
2022/09/20 01:09:26;;;;;;;4.77;2.30;;;;;;;;;;4958543;28;20199;-55
2022/09/20 01:11:54;;;;;;;3.77;2.10;;;;;;;;;;4948366;28;20184;-54
2022/09/20 01:14:22;;;;;;;3.60;2.70;;;;;;;;;;4963321;28;20180;-54
2022/09/20 01:16:53;;;;;;;4.70;2.30;;;;;;;;;;4967668;28;20650;-55
2022/09/20 01:19:27;;;;;;;2.93;2.70;;;;;;;;;;4950953;28;20188;-55
2022/09/20 01:21:53;;;;;;;3.83;2.43;;;;;;;;;;4964130;28;20501;-55
2022/09/20 01:24:25;;;;;;;4.27;2.20;;;;;;;;;;4966242;28;20187;-55
2022/09/20 01:26:51;;;;;;;3.03;2.30;;;;;;;;;;4949091;28;20200;-55
2022/09/20 01:29:30;;;;;;;3.87;2.33;;;;;;;;;;4959402;28;20236;-55
2022/09/20 01:32:00;;;;;;;4.70;2.53;;;;;;;;;;4962978;28;20646;-55
2022/09/20 01:34:39;;;;;;;3.30;2.03;;;;;;;;;;4949139;28;20274;-55
2022/09/20 01:37:14;;;;;;;2.37;2.17;;;;;;;;;;4949110;28;20230;-55
2022/09/20 01:39:54;;;;;;;2.83;1.97;;;;;;;;;;4959723;28;20651;-55
2022/09/20 01:42:25;;;;;;;4.47;2.33;;;;;;;;;;4967039;28;20182;-54
2022/09/20 01:45:09;;;;;;;3.83;2.30;;;;;;;;;;4965376;28;20195;-55
2022/09/20 01:47:38;;;;;;;4.87;2.70;;;;;;;;;;4965003;28;20680;-55
2022/09/20 01:50:19;;;;;;;2.47;1.80;;;;;;;;;;4966062;28;20208;-55
2022/09/20 01:52:55;;;;;;;2.53;2.13;;;;;;;;;;4958422;28;20630;-55
2022/09/20 01:55:33;;;;;;;2.93;2.07;;;;;;;;;;4935389;29;20630;-55
2022/09/20 01:58:14;;;;;;;3.77;2.33;;;;;;;;;;4964301;28;20193;-55
2022/09/20 02:01:13;;;;;;;3.90;2.33;;;;;;;;;;4966456;28;20288;-55
2022/09/20 02:03:58;;;;;;;3.70;2.10;;;;;;;;;;4967974;28;20172;-54
2022/09/20 02:06:43;;;;;;;2.97;1.70;;;;;;;;;;4965891;28;20199;-54
2022/09/20 02:09:21;;;;;;;2.70;2.00;;;;;;;;;;4964715;28;20294;-55
2022/09/20 02:12:04;;;;;;;3.20;2.40;;;;;;;;;;4968350;28;20296;-55
2022/09/20 02:14:34;;;;;;;3.07;2.30;;;;;;;;;;4966586;28;20192;-55
2022/09/20 02:17:12;;;;;;;5.73;2.70;;;;;;;;;;4965344;28;20187;-55
2022/09/20 02:19:38;;;;;;;3.63;1.90;;;;;;;;;;4966803;28;20545;-55
2022/09/20 02:22:08;;;;;;;2.87;2.23;;;;;;;;;;4951657;28;20190;-54
2022/09/20 02:24:40;;;;;;;4.60;1.93;;;;;;;;;;4968970;28;20210;-55
2022/09/20 02:27:25;;;;;;;2.53;1.90;;;;;;;;;;4968041;28;20251;-55
2022/09/20 02:30:17;;;;;;;2.43;1.90;;;;;;;;;;4970178;28;20720;-55
2022/09/20 02:32:51;;;;;;;5.03;2.40;;;;;;;;;;4956595;28;20172;-55
2022/09/20 02:35:24;;;;;;;4.73;2.00;;;;;;;;;;4968435;28;20254;-55
2022/09/20 02:37:53;;;;;;;2.83;2.10;;;;;;;;;;4968278;28;20314;-55
2022/09/20 02:40:34;;;;;;;3.37;1.87;;;;;;;;;;4970717;28;20720;-55
2022/09/20 02:43:18;;;;;;;2.77;1.90;;;;;;;;;;4969906;28;20172;-55
2022/09/20 02:45:56;;;;;;;3.53;2.30;;;;;;;;;;4966170;28;20267;-55
2022/09/20 02:48:29;;;;;;;5.50;1.77;;;;;;;;;;4966495;28;20666;-55
2022/09/20 02:51:17;;;;;;;2.47;2.07;;;;;;;;;;4966142;28;20271;-55
2022/09/20 02:53:46;;;;;;;1.73;1.43;;;;;;;;;;4966156;28;20207;-55
2022/09/20 02:56:31;;;;;;;3.73;2.00;;;;;;;;;;4944446;28;20639;-55
2022/09/20 02:59:01;;;;;;;3.10;1.97;;;;;;;;;;4965030;28;20226;-55
2022/09/20 03:01:35;;;;;;;2.23;1.93;;;;;;;;;;4945724;28;20230;-55
2022/09/20 03:04:01;;;;;;;2.00;1.57;;;;;;;;;;4968423;28;20604;-55
2022/09/20 03:06:32;;;;;;;3.93;2.10;;;;;;;;;;4967717;28;20548;-55
2022/09/20 03:09:11;;;;;;;2.90;2.13;;;;;;;;;;4964253;28;20216;-55
2022/09/20 03:11:48;;;;;;;3.67;2.10;;;;;;;;;;4948589;28;20183;-55
2022/09/20 03:14:21;;;;;;;2.17;1.90;;;;;;;;;;4960333;28;20952;-54
2022/09/20 03:16:58;;;;;;;7.67;7.17;;;;;;;;;;4967877;28;20554;-54
2022/09/20 03:19:39;;;;;;;4.17;2.40;;;;;;;;;;4966128;28;20766;-55
2022/09/20 03:22:09;;;;;;;2.67;2.00;;;;;;;;;;4947259;28;20194;-55
2022/09/20 03:24:50;;;;;;;2.30;1.53;;;;;;;;;;4964573;28;20187;-54
2022/09/20 03:27:16;;;;;;;6.37;2.10;;;;;;;;;;4966530;28;20684;-54
2022/09/20 03:30:05;;;;;;;4.47;2.00;;;;;;;;;;4968554;28;20210;-54
2022/09/20 03:32:40;;;;;;;4.47;1.83;;;;;;;;;;4952824;28;20711;-54
2022/09/20 03:35:15;;;;;;;2.57;1.90;;;;;;;;;;4948709;28;20570;-54
2022/09/20 03:37:47;;;;;;;2.27;1.97;;;;;;;;;;4968506;28;20246;-54
2022/09/20 03:40:28;;;;;;;5.20;3.40;;;;;;;;;;4963395;28;20222;-54
2022/09/20 03:43:00;;;;;;;2.07;1.80;;;;;;;;;;4969486;28;20202;-54
2022/09/20 03:45:37;;;;;;;18.70;2.57;;;;;;;;;;4944699;28;20192;-54
2022/09/20 03:48:19;;;;;;;2.73;1.93;;;;;;;;;;4969041;28;20188;-54
2022/09/20 03:50:56;;;;;;;2.20;1.80;;;;;;;;;;4962709;28;20309;-55
2022/09/20 03:53:41;;;;;;;4.63;2.00;;;;;;;;;;4968197;28;20187;-55
2022/09/20 03:56:08;;;;;;;3.17;2.00;;;;;;;;;;4965902;28;20184;-55
2022/09/20 03:59:00;;;;;;;2.13;2.00;;;;;;;;;;4969554;28;20605;-54
2022/09/20 04:01:32;;;;;;;3.20;1.90;;;;;;;;;;4928821;28;20206;-54
2022/09/20 04:03:58;;;;;;;2.07;1.87;;;;;;;;;;4965350;28;20200;-54
2022/09/20 04:06:43;;;;;;;4.07;1.60;;;;;;;;;;4965813;28;20192;-54
2022/09/20 04:09:10;;;;;;;3.27;3.07;;;;;;;;;;4950189;28;20666;-54
2022/09/20 04:11:58;;;;;;;2.53;1.70;;;;;;;;;;4966043;28;20639;-54
2022/09/20 04:14:30;;;;;;;2.13;1.93;;;;;;;;;;4964493;28;20179;-54
2022/09/20 04:17:23;;;;;;;5.13;2.23;;;;;;;;;;4967589;28;20188;-54
2022/09/20 04:20:02;;;;;;;2.23;2.00;;;;;;;;;;4927926;28;20805;-54
2022/09/20 04:22:28;;;;;;;2.83;1.77;;;;;;;;;;4966653;28;20281;-54
2022/09/20 04:24:55;;;;;;;2.20;2.00;;;;;;;;;;4956486;28;20195;-54
2022/09/20 04:27:25;;;;;;;3.57;3.23;;;;;;;;;;4964529;28;20188;-54
2022/09/20 04:29:57;;;;;;;4.57;2.50;;;;;;;;;;4965231;28;20207;-54
2022/09/20 04:32:42;;;;;;;2.83;1.83;;;;;;;;;;4960696;28;20554;-54
2022/09/20 04:38:05;;;;;;;2.83;1.70;;;;;;;;;;4965413;28;20317;-54
2022/09/20 04:40:51;;;;;;;3.10;1.73;;;;;;;;;;4962581;28;20242;-54
2022/09/20 04:43:36;;;;;;;3.27;1.90;;;;;;;;;;4950689;28;20253;-55
2022/09/20 04:46:15;;;;;;;1.47;1.33;;;;;;;;;;4966582;28;20274;-55
2022/09/20 04:48:59;;;;;;;3.13;2.13;;;;;;;;;;4965025;28;20188;-54
2022/09/20 04:51:25;;;;;;;5.43;2.40;;;;;;;;;;4962778;28;21682;-55
2022/09/20 04:53:52;;;;;;;2.63;1.67;;;;;;;;;;4956613;28;20214;-54
2022/09/20 04:56:18;;;;;;;3.47;1.90;;;;;;;;;;4967802;28;20513;-55
2022/09/20 04:58:45;;;;;;;3.00;2.07;;;;;;;;;;4968363;28;20192;-54
2022/09/20 05:01:15;;;;;;;3.17;2.80;;;;;;;;;;4931704;29;20655;-55
2022/09/20 05:04:00;;;;;;;3.90;2.10;;;;;;;;;;4964977;28;20282;-55
2022/09/20 05:06:33;;;;;;;2.57;2.20;;;;;;;;;;4966775;28;20554;-55
2022/09/20 05:08:59;;;;;;;4.23;2.30;;;;;;;;;;4963924;28;20966;-55
2022/09/20 05:11:48;;;;;;;3.23;2.13;;;;;;;;;;4961839;28;20188;-55
2022/09/20 05:14:23;;;;;;;3.10;1.87;;;;;;;;;;4931116;28;20192;-55
2022/09/20 05:17:09;;;;;;;7.47;2.50;;;;;;;;;;4965842;28;20179;-55
2022/09/20 05:19:35;;;;;;;3.43;2.10;;;;;;;;;;4960332;28;20243;-54
2022/09/20 05:22:20;;;;;;;8.70;4.17;;;;;;;;;;4963383;28;20209;-54
2022/09/20 05:25:01;;;;;;;10.10;4.93;;;;;;;;;;4961722;28;20327;-53
2022/09/20 05:27:34;;;;;;;11.80;4.57;;;;;;;;;;4963942;28;20194;-54
2022/09/20 05:30:19;;;;;;;8.73;4.47;;;;;;;;;;4949004;28;20306;-53
2022/09/20 05:32:52;;;;;;;7.20;4.40;;;;;;;;;;4961513;28;20548;-54
2022/09/20 05:35:33;;;;;;;5.37;4.10;;;;;;;;;;4959294;28;20174;-54
2022/09/20 05:38:11;;;;;;;8.53;4.40;;;;;;;;;;4948616;28;20208;-54
2022/09/20 05:40:47;;;;;;;7.93;4.10;;;;;;;;;;4949528;28;20810;-54
2022/09/20 05:43:19;;;;;;;11.93;4.67;;;;;;;;;;4967672;28;20182;-53
2022/09/20 05:46:03;;;;;;;15.23;6.00;;;;;;;;;;4967341;28;20314;-53
2022/09/20 05:48:36;;;;;;;7.27;3.93;;;;;;;;;;4972469;28;20164;-54
2022/09/20 05:51:11;;;;;;;8.07;4.90;;;;;;;;;;4970638;28;20764;-54
2022/09/20 05:53:37;;;;;;;11.57;4.47;;;;;;;;;;4964203;28;20180;-54
2022/09/20 05:56:11;;;;;;;7.77;5.10;;;;;;;;;;4986822;28;20183;-54
2022/09/20 05:58:45;;;;;;;11.97;5.10;;;;;;;;;;4972158;28;20285;-54
2022/09/20 06:01:15;;;;;;;8.77;4.47;;;;;;;;;;4965575;28;20576;-54
2022/09/20 06:03:47;;;;;;;10.17;4.47;;;;;;;;;;4966653;28;20184;-54
2022/09/20 06:06:29;;;;;;;11.80;4.73;;;;;;;;;;4968738;28;20676;-54
2022/09/20 06:09:03;;;;;;;10.73;6.07;;;;;;;;;;4966975;28;20207;-54
2022/09/20 06:11:35;;;;;;;7.80;4.63;;;;;;;;;;4971189;28;20175;-54
2022/09/20 06:14:02;;;;;;;7.30;4.67;;;;;;;;;;4961008;28;20208;-54
2022/09/20 06:16:38;;;;;;;7.93;4.20;;;;;;;;;;4968393;28;20190;-53
2022/09/20 06:19:12;;;;;;;6.63;4.50;;;;;;;;;;4966890;28;20212;-53
2022/09/20 06:21:48;;;;;;;9.17;4.83;;;;;;;;;;4967615;28;20187;-54
2022/09/20 06:24:31;;;;;;;10.63;5.53;;;;;;;;;;4965902;28;20631;-54
2022/09/20 06:26:59;;;;;;;7.00;4.17;;;;;;;;;;4951545;29;20243;-54
2022/09/20 06:29:36;;;;;;;11.00;5.30;;;;;;;;;;4958468;28;20339;-54
2022/09/20 06:32:08;;;;;;;12.57;5.10;;;;;;;;;;4970703;28;20184;-54
2022/09/20 06:34:35;;;;;;;11.17;4.90;;;;;;;;;;4957935;28;20175;-54
2022/09/20 06:42:46;;;;;;;11.40;5.50;;;;;;;;;;4969269;28;20206;-54
2022/09/20 06:45:12;;;;;;;8.67;5.60;;;;;;;;;;4953663;28;20184;-53
2022/09/20 06:47:39;;;;;;;6.40;4.93;;;;;;;;;;4971137;28;20158;-54
2022/09/20 06:50:05;;;;;;;7.27;5.07;;;;;;;;;;4965324;28;20215;-54
2022/09/20 06:52:32;;;;;;;8.17;4.53;;;;;;;;;;4957149;28;20627;-53
2022/09/20 06:54:58;;;;;;;11.03;5.13;;;;;;;;;;4966484;28;20182;-54
2022/09/20 06:57:31;;;;;;;11.73;5.67;;;;;;;;;;4968361;28;20191;-54
2022/09/20 06:59:58;;;;;;;7.60;5.00;;;;;;;;;;4966989;28;20250;-54
2022/09/20 07:02:24;;;;;;;14.00;5.53;;;;;;;;;;4965839;28;20502;-54
2022/09/20 07:04:54;;;;;;;8.83;5.60;;;;;;;;;;4944477;28;20189;-54
2022/09/20 07:07:20;;;;;;;7.30;5.60;;;;;;;;;;4952570;28;20571;-54
2022/09/20 07:09:46;;;;;;;5.57;4.70;;;;;;;;;;4952813;28;20238;-54
2022/09/20 07:12:13;;;;;;;10.80;4.80;;;;;;;;;;4953716;28;20368;-54
2022/09/20 07:14:39;;;;;;;19.40;5.53;;;;;;;;;;4970706;28;20583;-54
2022/09/20 07:17:06;;;;;;;8.27;5.40;;;;;;;;;;4968588;28;20186;-54
2022/09/20 07:19:32;;;;;;;10.13;5.53;;;;;;;;;;4967734;28;20642;-54
2022/09/20 07:21:59;;;;;;;8.67;5.40;;;;;;;;;;4951495;28;20180;-54
2022/09/20 07:24:25;;;;;;;8.03;4.77;;;;;;;;;;4945638;28;20215;-55
2022/09/20 07:26:55;;;;;;;10.17;4.50;;;;;;;;;;4967840;28;20191;-54
2022/09/20 07:29:21;;;;;;;5.13;4.47;;;;;;;;;;4967872;28;20235;-53
2022/09/20 07:31:49;;;;;;;7.30;4.40;;;;;;;;;;4950392;28;20286;-53
2022/09/20 07:34:19;;;;;;;8.33;4.20;;;;;;;;;;4956360;28;20199;-54
2022/09/20 07:36:49;;;;;;;6.67;4.77;;;;;;;;;;4970249;28;20195;-53
2022/09/20 07:39:15;;;;;;;8.17;4.60;;;;;;;;;;4961351;28;20270;-53
2022/09/20 07:41:44;;;;;;;6.20;4.40;;;;;;;;;;4967485;28;20744;-53
2022/09/20 07:44:26;;;;;;;10.80;4.67;;;;;;;;;;4962056;28;20628;-53
2022/09/20 07:46:54;;;;;;;6.97;4.77;;;;;;;;;;4958356;28;20194;-53
2022/09/20 07:49:21;;;;;;;8.60;4.17;;;;;;;;;;4961591;28;20642;-54
2022/09/20 07:51:48;;;;;;;6.33;4.30;;;;;;;;;;4967102;28;20188;-53
2022/09/20 07:54:14;;;;;;;6.70;4.93;;;;;;;;;;4951747;28;20211;-53
2022/09/20 07:56:40;;;;;;;8.77;5.53;;;;;;;;;;4969080;28;20168;-54
2022/09/20 07:59:09;;;;;;;6.67;3.83;;;;;;;;;;4954732;28;20716;-53
2022/09/20 08:01:35;;;;;;;8.97;4.33;;;;;;;;;;4960026;28;20187;-53
2022/09/20 08:04:03;;;;;;;6.40;4.03;;;;;;;;;;4966392;28;20274;-54
2022/09/20 08:06:30;;;;;;;12.83;4.90;;;;;;;;;;4950540;28;20658;-53
2022/09/20 08:08:56;;;;;;;9.83;3.77;;;;;;;;;;4949035;28;20180;-53
2022/09/20 08:11:28;;;;;;;5.90;3.57;;;;;;;;;;4958255;28;20260;-53
2022/09/20 08:13:54;;;;;;;6.13;3.10;;;;;;;;;;4957984;28;20183;-53
2022/09/20 08:16:21;;;;;;;8.70;2.97;;;;;;;;;;4950368;29;20169;-53
2022/09/20 08:18:49;;;;;;;6.30;2.90;;;;;;;;;;4964941;28;20664;-53
2022/09/20 08:21:16;;;;;;;5.53;2.87;;;;;;;;;;4950449;28;20208;-53
2022/09/20 08:23:44;;;;;;;3.87;2.87;;;;;;;;;;4956855;28;20188;-53
2022/09/20 08:26:12;;;;;;;7.17;3.00;;;;;;;;;;4967374;28;20179;-54
2022/09/20 08:28:38;;;;;;;12.37;4.63;;;;;;;;;;4968149;28;20722;-54
2022/09/20 08:31:12;;;;;;;10.63;3.43;;;;;;;;;;4963822;28;20239;-54
2022/09/20 08:33:40;;;;;;;5.80;3.13;;;;;;;;;;4968112;28;20207;-54
2022/09/20 08:36:07;;;;;;;6.37;3.23;;;;;;;;;;4966446;28;20258;-54
2022/09/20 08:38:34;;;;;;;8.40;3.23;;;;;;;;;;4960403;28;20711;-53
2022/09/20 08:41:06;;;;;;;7.20;3.33;;;;;;;;;;4969335;28;20764;-53
2022/09/20 08:43:35;;;;;;;3.50;2.67;;;;;;;;;;4959389;28;20532;-52
2022/09/20 08:46:02;;;;;;;6.20;3.10;;;;;;;;;;4949730;28;20180;-53
2022/09/20 08:48:32;;;;;;;4.90;3.03;;;;;;;;;;4965488;28;20219;-53
2022/09/20 08:51:01;;;;;;;6.07;2.53;;;;;;;;;;4966094;28;20697;-53
2022/09/20 08:53:28;;;;;;;7.07;3.57;;;;;;;;;;4947451;28;20187;-53
2022/09/20 08:55:56;;;;;;;3.90;2.47;;;;;;;;;;4968174;28;20226;-53
2022/09/20 08:58:22;;;;;;;3.63;2.67;;;;;;;;;;4950106;28;20190;-53
2022/09/20 09:00:49;;;;;;;5.67;2.60;;;;;;;;;;4959903;28;20262;-53
2022/09/20 09:03:16;;;;;;;6.47;2.63;;;;;;;;;;4951673;28;20179;-53
2022/09/20 09:05:50;;;;;;;5.10;2.70;;;;;;;;;;4968338;28;20178;-53
2022/09/20 09:08:18;;;;;;;6.33;2.13;;;;;;;;;;4966428;28;20187;-52
2022/09/20 09:10:46;;;;;;;12.80;2.80;;;;;;;;;;4964929;28;20670;-52
2022/09/20 09:13:36;;;;;;;4.80;2.10;;;;;;;;;;4951162;28;20198;-52
2022/09/20 09:16:09;;;;;;;8.40;2.50;;;;;;;;;;4930356;28;20207;-53
2022/09/20 09:18:36;;;;;;;6.07;2.53;;;;;;;;;;4967686;28;20192;-52
2022/09/20 09:21:06;;;;;;;7.30;2.93;;;;;;;;;;4966426;28;20193;-53
2022/09/20 09:23:40;;;;;;;3.50;1.93;;;;;;;;;;4966750;28;20550;-51
2022/09/20 09:26:14;;;;;;;6.47;2.10;;;;;;;;;;4939140;29;20188;-52
2022/09/20 09:28:40;;;;;;;5.93;2.17;;;;;;;;;;4963312;28;20454;-52
2022/09/20 09:31:24;;;;;;;6.67;2.87;;;;;;;;;;4968882;28;20541;-52
2022/09/20 09:33:50;;;;;;;3.40;1.90;;;;;;;;;;4965578;28;20389;-53
2022/09/20 09:36:22;;;;;;;8.70;2.20;;;;;;;;;;4957160;28;20241;-53
2022/09/20 09:38:49;;;;;;;5.60;2.00;;;;;;;;;;4948362;28;20196;-53
2022/09/20 09:41:24;;;;;;;6.43;2.37;;;;;;;;;;4949285;28;20227;-52
2022/09/20 09:43:59;;;;;;;6.97;2.37;;;;;;;;;;4963435;28;20183;-53
2022/09/20 09:46:27;;;;;;;5.10;2.20;;;;;;;;;;4952370;28;20637;-52
2022/09/20 09:49:23;;;;;;;3.33;1.70;;;;;;;;;;4950410;28;20222;-52
2022/09/20 09:52:01;;;;;;;7.83;2.00;;;;;;;;;;4923287;29;20661;-53
2022/09/20 09:54:36;;;;;;;5.83;1.83;;;;;;;;;;4953818;28;20734;-53
2022/09/20 09:57:22;;;;;;;5.60;2.27;;;;;;;;;;4948034;29;20263;-52
2022/09/20 09:59:48;;;;;;;5.47;1.90;;;;;;;;;;4950396;28;20788;-52
2022/09/20 10:02:28;;;;;;;5.67;1.70;;;;;;;;;;4968147;28;20908;-52
2022/09/20 10:05:21;;;;;;;1.70;1.60;;;;;;;;;;4949836;28;20183;-52
2022/09/20 10:07:53;;;;;;;5.73;1.87;;;;;;;;;;4938112;28;20322;-52
2022/09/20 10:10:28;;;;;;;5.37;1.93;;;;;;;;;;4966360;28;20503;-52
2022/09/20 10:12:57;;;;;;;7.87;2.47;;;;;;;;;;4968755;28;20242;-52
2022/09/20 10:15:36;;;;;;;6.50;2.03;;;;;;;;;;4954855;28;20558;-52
2022/09/20 10:18:25;;;;;;;5.20;2.27;;;;;;;;;;4961278;28;20188;-53
2022/09/20 10:20:57;;;;;;;5.93;2.33;;;;;;;;;;4904076;29;20204;-53
2022/09/20 10:23:40;;;;;;;6.60;2.13;;;;;;;;;;4956847;28;20191;-53
2022/09/20 10:26:25;;;;;;;5.40;3.03;;;;;;;;;;4957392;28;20183;-53
2022/09/20 10:29:04;;;;;;;4.90;2.93;;;;;;;;;;4966183;28;20386;-53
2022/09/20 10:31:47;;;;;;;3.97;2.40;;;;;;;;;;4965833;28;20579;-52
2022/09/20 10:34:19;;;;;;;5.87;2.83;;;;;;;;;;4969424;28;20175;-52
2022/09/20 10:36:56;;;;;;;7.30;2.80;;;;;;;;;;4970343;28;20238;-53
2022/09/20 10:39:31;;;;;;;5.43;2.30;;;;;;;;;;4966889;28;20253;-52
2022/09/20 10:45:07;;;;;;;3.13;2.00;;;;;;;;;;4962373;28;20749;-52
2022/09/20 10:47:48;;;;;;;2.97;2.47;;;;;;;;;;4969538;28;20198;-53
2022/09/20 10:50:33;;;;;;;4.50;1.73;;;;;;;;;;4967163;28;20560;-53
2022/09/20 10:53:02;;;;;;;3.00;1.90;;;;;;;;;;4971256;28;20167;-53
2022/09/20 10:55:31;;;;;;;4.93;2.13;;;;;;;;;;4958017;28;20173;-54
2022/09/20 10:58:16;;;;;;;3.93;2.20;;;;;;;;;;4970944;28;20258;-52
2022/09/20 11:00:42;;;;;;;3.40;1.80;;;;;;;;;;4969557;28;20690;-53
2022/09/20 11:03:15;;;;;;;3.50;1.90;;;;;;;;;;4953162;28;20227;-53
2022/09/20 11:06:00;;;;;;;4.83;2.10;;;;;;;;;;4959032;28;20207;-53
2022/09/20 11:08:28;;;;;;;2.57;1.90;;;;;;;;;;4968688;28;20183;-53
2022/09/20 11:10:58;;;;;;;5.50;1.50;;;;;;;;;;4969605;28;20690;-54
2022/09/20 11:13:33;;;;;;;4.23;1.97;;;;;;;;;;4970210;28;20705;-53
2022/09/20 11:16:04;;;;;;;4.50;1.40;;;;;;;;;;4970347;28;20350;-53
2022/09/20 11:18:49;;;;;;;2.70;1.87;;;;;;;;;;4969297;28;20733;-53
2022/09/20 11:21:27;;;;;;;2.20;1.60;;;;;;;;;;4934187;29;20188;-53
2022/09/20 11:23:59;;;;;;;1.87;1.63;;;;;;;;;;4964973;28;20654;-53
2022/09/20 11:26:32;;;;;;;4.83;2.30;;;;;;;;;;4966969;28;20518;-53
2022/09/20 11:29:02;;;;;;;7.13;2.23;;;;;;;;;;4946803;28;20184;-53
2022/09/20 11:31:38;;;;;;;1.97;1.67;;;;;;;;;;4960375;28;20665;-53
2022/09/20 11:34:27;;;;;;;4.97;1.67;;;;;;;;;;4952676;28;20186;-52
2022/09/20 11:37:00;;;;;;;3.53;1.60;;;;;;;;;;4961773;28;20204;-53
2022/09/20 11:39:26;;;;;;;3.90;2.07;;;;;;;;;;4968493;28;20204;-53
2022/09/20 11:41:54;;;;;;;4.70;1.97;;;;;;;;;;4967719;28;20289;-53
2022/09/20 11:44:20;;;;;;;4.97;1.73;;;;;;;;;;4965098;28;20784;-53
2022/09/20 11:47:05;;;;;;;2.67;1.87;;;;;;;;;;4962239;28;20552;-53
2022/09/20 11:49:37;;;;;;;3.37;1.33;;;;;;;;;;4967446;28;20230;-53
2022/09/20 11:52:03;;;;;;;2.30;1.60;;;;;;;;;;4966962;28;20200;-53
2022/09/20 11:54:55;;;;;;;4.17;1.90;;;;;;;;;;4963808;28;20630;-52
2022/09/20 11:57:21;;;;;;;2.37;1.80;;;;;;;;;;4956807;28;20188;-54
2022/09/20 11:59:56;;;;;;;4.33;2.80;;;;;;;;;;4971493;28;20634;-52
2022/09/20 12:02:34;;;;;;;3.07;2.50;;;;;;;;;;4950694;29;20219;-52
2022/09/20 12:05:00;;;;;;;3.03;1.87;;;;;;;;;;4966676;28;20175;-53
2022/09/20 12:07:34;;;;;;;4.87;2.03;;;;;;;;;;4969965;28;20164;-53
2022/09/20 12:10:02;;;;;;;2.20;1.50;;;;;;;;;;4961787;28;20278;-53
2022/09/20 12:12:34;;;;;;;2.47;1.60;;;;;;;;;;4965211;28;20187;-54
2022/09/20 12:15:02;;;;;;;2.13;1.10;;;;;;;;;;4970700;28;20195;-53
2022/09/20 12:17:46;;;;;;;3.80;2.03;;;;;;;;;;4961215;28;20188;-54
2022/09/20 12:20:31;;;;;;;2.87;2.67;;;;;;;;;;4959331;28;20185;-54
2022/09/20 12:23:16;;;;;;;2.17;1.50;;;;;;;;;;4964273;28;20636;-52
2022/09/20 12:26:02;;;;;;;2.83;1.70;;;;;;;;;;4962075;28;20191;-53
2022/09/20 12:28:49;;;;;;;3.47;1.23;;;;;;;;;;4965140;28;20651;-53
2022/09/20 12:31:25;;;;;;;3.13;1.83;;;;;;;;;;4950444;28;20646;-52
2022/09/20 12:33:58;;;;;;;2.47;1.40;;;;;;;;;;4948200;28;20745;-53
2022/09/20 12:36:24;;;;;;;4.67;2.00;;;;;;;;;;4959608;28;20288;-52
2022/09/20 12:38:58;;;;;;;2.17;1.50;;;;;;;;;;4950439;28;20283;-53
2022/09/20 12:41:25;;;;;;;2.43;1.30;;;;;;;;;;4961110;28;20215;-53
2022/09/20 12:43:58;;;;;;;1.70;1.23;;;;;;;;;;4952686;28;20685;-53
2022/09/20 12:46:28;;;;;;;1.40;1.30;;;;;;;;;;4962861;28;20670;-53
2022/09/20 12:52:49;;;;;;;1.83;1.23;;;;;;;;;;4959152;28;20180;-53
2022/09/20 12:54:51;;;;;;;2.67;1.47;;;;;;;;;;4964755;28;20191;-53
2022/09/20 12:57:26;;;;;;;1.40;1.30;;;;;;;;;;4963513;28;20542;-53
2022/09/20 12:59:56;;;;;;;5.20;1.50;;;;;;;;;;4956892;28;20416;-53
2022/09/20 13:02:40;;;;;;;2.47;1.47;;;;;;;;;;4971873;28;20196;-53
2022/09/20 13:05:25;;;;;;;4.10;2.13;;;;;;;;;;4976315;28;20269;-52
2022/09/20 13:07:59;;;;;;;1.40;1.30;;;;;;;;;;4966419;28;20235;-52
2022/09/20 13:10:30;;;;;;;3.50;1.60;;;;;;;;;;4939714;29;20196;-52
2022/09/20 13:13:02;;;;;;;2.80;1.23;;;;;;;;;;4947988;29;20181;-52
2022/09/20 13:15:31;;;;;;;2.00;1.10;;;;;;;;;;4962851;28;20198;-53
2022/09/20 13:17:59;;;;;;;2.57;1.43;;;;;;;;;;4968357;28;20156;-53
2022/09/20 13:20:33;;;;;;;2.20;1.87;;;;;;;;;;4950305;28;20203;-53
2022/09/20 13:23:01;;;;;;;2.47;2.13;;;;;;;;;;4959367;28;20207;-52
2022/09/20 13:25:27;;;;;;;1.57;1.37;;;;;;;;;;4963995;28;20704;-53
2022/09/20 13:28:00;;;;;;;2.13;1.60;;;;;;;;;;4958574;28;20183;-53
2022/09/20 13:30:34;;;;;;;2.47;1.50;;;;;;;;;;4938722;28;20202;-52
2022/09/20 13:33:19;;;;;;;3.53;1.73;;;;;;;;;;4954671;28;20186;-53
2022/09/20 13:35:47;;;;;;;4.00;1.60;;;;;;;;;;4948656;28;20823;-52
2022/09/20 13:38:21;;;;;;;1.93;1.40;;;;;;;;;;4966654;28;20196;-52
2022/09/20 13:40:48;;;;;;;3.10;1.27;;;;;;;;;;4965458;28;20183;-52
2022/09/20 13:43:29;;;;;;;3.40;1.37;;;;;;;;;;4949849;28;20220;-52
2022/09/20 13:45:59;;;;;;;2.50;1.57;;;;;;;;;;4955422;28;20673;-53
2022/09/20 13:48:29;;;;;;;2.57;1.40;;;;;;;;;;4956518;28;20269;-52
2022/09/20 13:50:56;;;;;;;3.10;1.53;;;;;;;;;;4961488;28;20269;-52
2022/09/20 13:53:23;;;;;;;2.07;1.97;;;;;;;;;;4961696;28;20192;-52
2022/09/20 13:55:50;;;;;;;1.60;1.50;;;;;;;;;;4949988;28;20643;-52
2022/09/20 13:58:19;;;;;;;4.43;2.03;;;;;;;;;;4966894;28;20198;-52
2022/09/20 14:00:46;;;;;;;2.83;1.70;;;;;;;;;;4950718;28;20282;-53
2022/09/20 14:03:16;;;;;;;5.80;3.73;;;;;;;;;;4968684;28;20173;-52
2022/09/20 14:05:46;;;;;;;2.00;1.57;;;;;;;;;;4966848;28;20526;-52
2022/09/20 14:08:16;;;;;;;3.00;1.77;;;;;;;;;;4971474;28;20199;-52
2022/09/20 14:10:42;;;;;;;5.07;1.70;;;;;;;;;;4955155;28;20212;-52
2022/09/20 14:13:13;;;;;;;3.43;2.23;;;;;;;;;;4952813;29;20276;-53
2022/09/20 14:15:43;;;;;;;4.13;2.17;;;;;;;;;;4967761;28;20246;-53
2022/09/20 14:18:20;;;;;;;3.53;1.90;;;;;;;;;;4971920;28;20922;-53
2022/09/20 14:20:54;;;;;;;2.47;1.70;;;;;;;;;;4954075;28;20195;-53
2022/09/20 14:23:27;;;;;;;3.67;2.50;;;;;;;;;;4971729;28;20168;-52
2022/09/20 14:26:28;;;;;;;2.93;1.97;;;;;;;;;;4962062;28;20183;-53
2022/09/20 14:28:54;;;;;;;3.20;1.70;;;;;;;;;;4874124;29;20685;-52
2022/09/20 14:31:28;;;;;;;3.63;2.20;;;;;;;;;;4951022;28;20239;-52
2022/09/20 14:33:56;;;;;;;2.37;1.70;;;;;;;;;;4970413;28;20172;-52
2022/09/20 14:36:27;;;;;;;2.10;1.37;;;;;;;;;;4962007;28;20219;-52
2022/09/20 14:38:54;;;;;;;3.03;1.30;;;;;;;;;;4954014;28;20183;-52
2022/09/20 14:41:27;;;;;;;2.00;1.30;;;;;;;;;;4969833;28;20223;-52
2022/09/20 14:43:55;;;;;;;3.37;2.23;;;;;;;;;;4964373;28;20554;-52
2022/09/20 14:46:28;;;;;;;2.00;1.43;;;;;;;;;;4953623;28;20238;-53
2022/09/20 14:48:54;;;;;;;2.17;1.30;;;;;;;;;;4970424;28;20176;-53
2022/09/20 14:51:24;;;;;;;2.43;1.80;;;;;;;;;;4971778;28;20698;-52
2022/09/20 14:54:05;;;;;;;2.20;1.53;;;;;;;;;;4969565;28;20683;-53
2022/09/20 14:56:36;;;;;;;2.17;1.30;;;;;;;;;;4952396;28;20599;-53
2022/09/20 14:59:04;;;;;;;2.47;1.50;;;;;;;;;;4964383;28;20186;-52
2022/09/20 15:01:31;;;;;;;3.90;1.70;;;;;;;;;;4954775;28;20700;-52
2022/09/20 15:03:57;;;;;;;1.73;1.43;;;;;;;;;;4948450;28;20711;-53
2022/09/20 15:06:24;;;;;;;3.20;1.50;;;;;;;;;;4953655;28;20188;-51
2022/09/20 15:08:50;;;;;;;1.73;1.63;;;;;;;;;;4952486;28;20213;-52
2022/09/20 15:11:17;;;;;;;4.97;1.63;;;;;;;;;;4967437;28;20612;-51
2022/09/20 15:13:44;;;;;;;2.13;1.87;;;;;;;;;;4949965;28;20235;-52
2022/09/20 15:16:12;;;;;;;3.23;1.60;;;;;;;;;;4968130;28;20187;-52
2022/09/20 15:18:42;;;;;;;2.50;1.43;;;;;;;;;;4967640;28;20203;-52
2022/09/20 15:21:11;;;;;;;4.93;1.80;;;;;;;;;;4965055;28;20190;-51
2022/09/20 15:23:45;;;;;;;5.97;2.30;;;;;;;;;;4949839;28;20196;-51
2022/09/20 15:26:12;;;;;;;2.00;1.57;;;;;;;;;;4959016;28;20519;-52
2022/09/20 15:28:39;;;;;;;3.13;1.30;;;;;;;;;;4960018;28;20172;-52
2022/09/20 15:31:05;;;;;;;2.27;1.20;;;;;;;;;;4965571;28;20701;-52
2022/09/20 15:33:32;;;;;;;2.23;1.73;;;;;;;;;;4951067;28;20173;-52